Time;durP1;ratioP1;P1;durP2;ratioP2;P2;SDS_P1;SDS_P2;PMS_P1;PMS_P2;Temp;Humidity;BMP_temperature;BMP_pressure;BME280_temperature;BME280_humidity;BME280_pressure;Samples;Min_cycle;Max_cycle;Signal;HPM_P1;HPM_P2
2022/09/06 00:01:29;;;;;;;;;;;;;;;19.15;74.11;101477.75;5045398;28;19970;-57
2022/09/06 00:03:54;;;;;;;;;;;;;;;19.15;73.59;101490.41;5045887;28;19921;-57
2022/09/06 00:06:20;;;;;;;;;;;;;;;19.16;73.56;101500.13;5045057;28;19927;-56
2022/09/06 00:08:46;;;;;;;;;;;;;;;19.14;73.60;101513.81;5045629;28;20398;-56
2022/09/06 00:11:12;;;;;;;;;;;;;;;19.13;73.47;101528.31;5053114;28;20004;-56
2022/09/06 00:13:37;;;;;;;;;;;;;;;19.14;73.35;101532.66;5050380;28;19999;-55
2022/09/06 00:16:06;;;;;;;;;;;;;;;19.17;73.48;101551.09;5055523;28;19920;-56
2022/09/06 00:18:31;;;;;;;;;;;;;;;19.15;75.01;101573.88;5051522;28;19925;-56
2022/09/06 00:20:56;;;;;;;;;;;;;;;18.96;75.35;101610.53;5050523;28;19924;-57
2022/09/06 00:23:21;;;;;;;;;;;;;;;18.67;76.60;101644.03;5051844;28;19913;-56
2022/09/06 00:25:47;;;;;;;;;;;;;;;18.46;78.04;101641.47;5051592;28;19920;-57
2022/09/06 00:28:12;;;;;;;;;;;;;;;18.24;79.71;101656.94;5053390;28;19920;-56
2022/09/06 00:30:37;;;;;;;;;;;;;;;18.08;80.25;101658.09;5053692;28;19924;-56
2022/09/06 00:33:02;;;;;;;;;;;;;;;17.99;80.45;101670.03;5050571;28;19956;-56
2022/09/06 00:35:27;;;;;;;;;;;;;;;17.98;79.56;101663.00;5050721;28;19920;-56
2022/09/06 00:37:56;;;;;;;;;;;;;;;18.03;79.17;101676.69;5054346;28;20306;-56
2022/09/06 00:40:22;;;;;;;;;;;;;;;18.08;79.29;101686.84;5051920;28;20385;-56
2022/09/06 00:42:47;;;;;;;;;;;;;;;18.11;79.14;101673.81;5055815;28;19935;-56
2022/09/06 00:45:13;;;;;;;;;;;;;;;18.18;78.66;101684.59;5053615;28;19995;-56
2022/09/06 00:47:40;;;;;;;;;;;;;;;18.24;78.93;101684.66;5050870;28;19921;-56
2022/09/06 00:50:06;;;;;;;;;;;;;;;18.30;78.68;101668.75;5042543;28;19921;-56
2022/09/06 00:52:32;;;;;;;;;;;;;;;18.36;78.53;101660.69;5056901;28;19920;-56
2022/09/06 00:54:58;;;;;;;;;;;;;;;18.42;78.29;101669.81;5051251;28;19912;-56
2022/09/06 00:57:27;;;;;;;;;;;;;;;18.47;77.83;101670.84;5051246;28;19966;-56
2022/09/06 00:59:53;;;;;;;;;;;;;;;18.55;77.78;101651.03;5046907;28;19916;-55
2022/09/06 01:02:19;;;;;;;;;;;;;;;18.60;77.45;101643.16;5047689;28;20412;-56
2022/09/06 01:04:45;;;;;;;;;;;;;;;18.69;77.07;101641.97;5051598;28;20406;-56
2022/09/06 01:07:10;;;;;;;;;;;;;;;18.74;77.49;101631.41;5047923;28;19920;-56
2022/09/06 01:09:54;;;;;;;;;;;;;;;18.77;77.49;101614.84;5050397;28;19982;-55
2022/09/06 01:12:38;;;;;;;;;;;;;;;18.80;77.05;101611.78;5049871;28;20316;-55
2022/09/06 01:15:08;;;;;;;;;;;;;;;18.85;76.81;101621.91;5049752;28;20572;-56
2022/09/06 01:17:33;;;;;;;;;;;;;;;18.89;76.08;101623.16;5050175;28;20011;-55
2022/09/06 01:20:13;;;;;;;;;;;;;;;18.92;76.41;101621.91;5053516;28;19992;-57
2022/09/06 01:22:50;;;;;;;;;;;;;;;18.95;76.57;101610.72;5050449;28;19938;-56
2022/09/06 01:25:33;;;;;;;;;;;;;;;18.99;75.86;101599.34;5048111;28;19921;-56
2022/09/06 01:28:17;;;;;;;;;;;;;;;19.04;76.06;101599.53;5050384;28;19928;-56
2022/09/06 01:30:49;;;;;;;;;;;;;;;19.03;76.37;101570.97;5045464;28;19916;-55
2022/09/06 01:33:29;;;;;;;;;;;;;;;18.95;77.41;101546.97;5049995;28;20388;-56
2022/09/06 01:35:59;;;;;;;;;;;;;;;18.87;76.97;101507.63;5053703;28;19967;-53
2022/09/06 01:38:24;;;;;;;;;;;;;;;18.80;77.22;101484.47;5051652;28;19978;-56
2022/09/06 01:40:50;;;;;;;;;;;;;;;18.73;77.19;101464.78;5048685;28;19920;-56
2022/09/06 01:43:22;;;;;;;;;;;;;;;18.66;77.14;101437.06;5049613;28;19921;-56
2022/09/06 01:45:59;;;;;;;;;;;;;;;18.57;77.58;101428.38;5045293;28;19916;-56
2022/09/06 01:48:32;;;;;;;;;;;;;;;18.51;77.52;101437.28;5054600;28;20329;-56
2022/09/06 01:51:30;;;;;;;;;;;;;;;18.46;78.04;101435.19;5049965;28;19920;-56
2022/09/06 01:54:13;;;;;;;;;;;;;;;18.45;78.08;101430.84;5045201;28;19917;-55
2022/09/06 01:56:44;;;;;;;;;;;;;;;18.47;77.85;101433.31;5044931;28;19939;-54
2022/09/06 01:59:10;;;;;;;;;;;;;;;18.48;77.45;101427.75;5046053;28;19917;-55
2022/09/06 02:01:47;;;;;;;;;;;;;;;18.50;77.47;101430.22;5050620;28;19917;-55
2022/09/06 02:04:15;;;;;;;;;;;;;;;18.52;77.48;101430.88;5049135;28;19917;-56
2022/09/06 02:06:53;;;;;;;;;;;;;;;18.55;77.58;101439.34;5047852;28;20011;-55
2022/09/06 02:09:21;;;;;;;;;;;;;;;18.56;77.15;101445.56;5050040;28;20011;-56
2022/09/06 02:11:55;;;;;;;;;;;;;;;18.60;77.11;101440.56;5051760;28;19921;-57
2022/09/06 02:14:24;;;;;;;;;;;;;;;18.63;77.16;101441.00;5049924;28;19912;-56
2022/09/06 02:16:51;;;;;;;;;;;;;;;18.68;76.89;101449.28;5046242;28;20284;-56
2022/09/06 02:19:20;;;;;;;;;;;;;;;18.73;77.24;101438.72;5045135;28;19913;-55
2022/09/06 02:21:46;;;;;;;;;;;;;;;18.75;77.27;101439.31;5046998;28;19916;-55
2022/09/06 02:24:18;;;;;;;;;;;;;;;18.75;77.14;101427.72;5046449;28;20396;-56
2022/09/06 02:26:45;;;;;;;;;;;;;;;18.75;77.01;101430.44;5044842;28;19919;-56
2022/09/06 02:29:10;;;;;;;;;;;;;;;18.70;77.42;101447.19;5045561;28;19917;-55
2022/09/06 02:31:43;;;;;;;;;;;;;;;18.61;77.61;101453.81;5046956;28;19923;-55
2022/09/06 02:34:09;;;;;;;;;;;;;;;18.51;78.08;101464.19;5042683;28;19995;-55
2022/09/06 02:36:35;;;;;;;;;;;;;;;18.29;78.87;101470.78;5045731;28;19924;-56
2022/09/06 02:39:00;;;;;;;;;;;;;;;18.04;80.32;101489.34;5052226;28;19920;-56
2022/09/06 02:41:26;;;;;;;;;;;;;;;17.88;80.10;101461.00;5038978;28;19929;-55
2022/09/06 02:43:51;;;;;;;;;;;;;;;17.89;79.85;101451.91;5049405;28;19956;-55
2022/09/06 02:46:17;;;;;;;;;;;;;;;17.95;79.29;101449.25;5048574;28;19920;-56
2022/09/06 02:48:42;;;;;;;;;;;;;;;18.04;79.28;101449.88;5044818;28;19921;-56
2022/09/06 02:51:08;;;;;;;;;;;;;;;18.12;79.00;101456.91;5048506;28;19916;-56
2022/09/06 02:53:33;;;;;;;;;;;;;;;18.18;78.95;101453.38;5046957;28;19967;-56
2022/09/06 02:55:59;;;;;;;;;;;;;;;18.24;78.61;101457.97;5049342;28;19950;-56
2022/09/06 02:58:24;;;;;;;;;;;;;;;18.29;78.17;101451.97;5044445;28;20406;-56
2022/09/06 03:00:52;;;;;;;;;;;;;;;18.34;78.02;101454.84;5043379;28;19913;-56
2022/09/06 03:03:18;;;;;;;;;;;;;;;18.36;78.36;101447.41;5048232;28;19913;-55
2022/09/06 03:05:46;;;;;;;;;;;;;;;18.35;78.20;101451.13;5048888;28;19923;-54
2022/09/06 03:08:12;;;;;;;;;;;;;;;18.34;77.93;101446.78;5046099;28;19966;-56
2022/09/06 03:10:37;;;;;;;;;;;;;;;18.33;77.65;101440.59;5048029;28;19916;-56
2022/09/06 03:13:02;;;;;;;;;;;;;;;18.35;78.23;101440.38;5048951;28;19994;-56
2022/09/06 03:15:27;;;;;;;;;;;;;;;18.36;78.31;101425.91;5054767;28;19971;-57
2022/09/06 03:17:56;;;;;;;;;;;;;;;18.38;78.22;101431.88;5047440;28;19927;-56
2022/09/06 03:20:21;;;;;;;;;;;;;;;18.40;78.03;101436.03;5047999;28;19916;-56
2022/09/06 03:22:46;;;;;;;;;;;;;;;18.40;78.24;101436.03;5050206;28;20276;-56
2022/09/06 03:25:12;;;;;;;;;;;;;;;18.41;78.44;101437.69;5043237;28;19923;-56
2022/09/06 03:27:37;;;;;;;;;;;;;;;18.43;78.05;101445.53;5043505;28;19917;-56
2022/09/06 03:30:03;;;;;;;;;;;;;;;18.44;78.13;101448.00;5040375;28;19921;-56
2022/09/06 03:32:28;;;;;;;;;;;;;;;18.42;78.28;101446.56;5045238;28;19923;-56
2022/09/06 03:34:53;;;;;;;;;;;;;;;18.37;78.20;101449.06;5046540;28;19971;-56
2022/09/06 03:37:18;;;;;;;;;;;;;;;18.36;77.93;101450.09;5045801;28;19916;-56
2022/09/06 03:39:44;;;;;;;;;;;;;;;18.33;78.46;101456.72;5045589;28;20475;-56
2022/09/06 03:42:09;;;;;;;;;;;;;;;18.26;78.94;101461.28;5048995;28;19966;-56
2022/09/06 03:44:34;;;;;;;;;;;;;;;18.22;78.28;101460.03;5048211;28;19917;-55
2022/09/06 03:47:00;;;;;;;;;;;;;;;18.21;78.10;101456.53;5052266;28;20560;-56
2022/09/06 03:49:25;;;;;;;;;;;;;;;18.23;78.15;101456.31;5051052;28;19921;-54
2022/09/06 03:51:50;;;;;;;;;;;;;;;18.21;78.02;101445.75;5050651;28;19917;-56
2022/09/06 03:54:15;;;;;;;;;;;;;;;18.20;77.45;101448.63;5049286;28;19920;-56
2022/09/06 03:56:40;;;;;;;;;;;;;;;18.21;78.05;101453.81;5054212;28;19928;-56
2022/09/06 03:59:05;;;;;;;;;;;;;;;18.21;77.86;101442.22;5053567;28;19956;-56
2022/09/06 04:01:31;;;;;;;;;;;;;;;18.17;77.68;101449.88;5046797;28;19944;-55
2022/09/06 04:03:56;;;;;;;;;;;;;;;18.14;77.58;101452.16;5050994;28;19927;-56
2022/09/06 04:06:21;;;;;;;;;;;;;;;18.07;77.74;101452.16;5047074;28;19964;-56
2022/09/06 04:08:46;;;;;;;;;;;;;;;18.06;77.30;101452.34;5049180;28;20380;-55
2022/09/06 04:11:12;;;;;;;;;;;;;;;18.03;77.44;101450.91;5047686;28;19959;-53
2022/09/06 04:13:37;;;;;;;;;;;;;;;18.03;76.80;101456.28;5047241;28;20380;-56
2022/09/06 04:16:03;;;;;;;;;;;;;;;18.01;77.10;101454.81;5046055;28;19971;-57
2022/09/06 04:18:28;;;;;;;;;;;;;;;17.99;77.45;101451.53;5049927;28;19917;-55
2022/09/06 04:20:57;;;;;;;;;;;;;;;17.98;77.49;101452.56;5046169;28;19924;-56
2022/09/06 04:23:24;;;;;;;;;;;;;;;17.95;77.66;101460.00;5052798;28;19963;-55
2022/09/06 04:25:50;;;;;;;;;;;;;;;17.90;78.04;101462.44;5046975;28;19917;-57
2022/09/06 04:28:17;;;;;;;;;;;;;;;17.83;78.51;101466.16;5044981;28;19921;-55
2022/09/06 04:30:42;;;;;;;;;;;;;;;17.76;78.50;101468.00;5047697;28;19917;-55
2022/09/06 04:33:07;;;;;;;;;;;;;;;17.68;79.15;101465.50;5044152;28;19944;-56
2022/09/06 04:35:32;;;;;;;;;;;;;;;17.57;79.15;101473.06;5045037;28;19916;-56
2022/09/06 04:38:01;;;;;;;;;;;;;;;17.45;79.91;101479.22;5043982;28;19952;-56
2022/09/06 04:40:26;;;;;;;;;;;;;;;17.27;80.20;101483.25;5042424;28;20499;-55
2022/09/06 04:42:52;;;;;;;;;;;;;;;17.11;80.88;101482.78;5047763;28;19924;-56
2022/09/06 04:45:17;;;;;;;;;;;;;;;16.97;80.82;101476.47;5051206;28;19952;-55
2022/09/06 04:47:42;;;;;;;;;;;;;;;16.85;81.34;101484.25;5046978;28;19924;-56
2022/09/06 04:50:07;;;;;;;;;;;;;;;16.79;81.13;101479.69;5047883;28;19929;-56
2022/09/06 04:52:32;;;;;;;;;;;;;;;16.74;81.42;101476.72;5049728;28;20409;-55
2022/09/06 04:54:57;;;;;;;;;;;;;;;16.75;80.95;101472.19;5042568;28;19917;-56
2022/09/06 04:57:23;;;;;;;;;;;;;;;16.79;81.04;101473.50;5044723;28;20459;-56
2022/09/06 04:59:48;;;;;;;;;;;;;;;16.81;80.53;101466.06;5050792;28;19921;-56
2022/09/06 05:02:13;;;;;;;;;;;;;;;16.86;80.59;101472.50;5050220;28;19959;-56
2022/09/06 05:04:38;;;;;;;;;;;;;;;16.89;80.69;101480.16;5056072;28;19978;-56
2022/09/06 05:07:05;;;;;;;;;;;;;;;16.91;81.37;101485.31;5051870;28;20379;-56
2022/09/06 05:09:31;;;;;;;;;;;;;;;16.86;81.74;101480.53;5051041;28;20002;-56
2022/09/06 05:11:56;;;;;;;;;;;;;;;16.81;81.81;101477.63;5051971;28;19920;-56
2022/09/06 05:14:22;;;;;;;;;;;;;;;16.82;81.18;101479.28;5054037;28;19916;-56
2022/09/06 05:16:47;;;;;;;;;;;;;;;16.86;81.15;101469.81;5048041;28;19917;-55
2022/09/06 05:19:12;;;;;;;;;;;;;;;16.92;81.29;101470.88;5052434;28;19913;-55
2022/09/06 05:21:37;;;;;;;;;;;;;;;16.97;80.70;101471.13;5047140;28;19967;-56
2022/09/06 05:24:02;;;;;;;;;;;;;;;17.01;80.70;101461.63;5053291;28;19921;-56
2022/09/06 05:26:27;;;;;;;;;;;;;;;17.07;80.51;101470.78;5045094;28;19925;-58
2022/09/06 05:28:53;;;;;;;;;;;;;;;17.11;80.61;101472.03;5048873;28;20365;-58
2022/09/06 05:31:26;;;;;;;;;;;;;;;17.14;80.21;101482.38;5052708;28;19913;-58
2022/09/06 05:33:52;;;;;;;;;;;;;;;17.15;80.61;101478.66;5050984;28;19947;-58
2022/09/06 05:36:17;;;;;;;;;;;;;;;17.16;80.63;101486.50;5052661;28;19917;-58
2022/09/06 05:38:42;;;;;;;;;;;;;;;17.20;80.41;101489.63;5049161;28;19924;-57
2022/09/06 05:41:08;;;;;;;;;;;;;;;17.24;80.46;101499.75;5049241;28;19920;-58
2022/09/06 05:43:33;;;;;;;;;;;;;;;17.28;80.28;101492.13;5049803;28;20569;-58
2022/09/06 05:45:58;;;;;;;;;;;;;;;17.30;80.56;101495.44;5046458;28;20406;-58
2022/09/06 05:48:24;;;;;;;;;;;;;;;17.33;80.30;101497.75;5049846;28;19921;-58
2022/09/06 05:50:58;;;;;;;;;;;;;;;17.38;80.48;101500.69;5045194;28;19952;-55
2022/09/06 05:53:23;;;;;;;;;;;;;;;17.47;80.77;101494.09;5050551;28;20035;-56
2022/09/06 05:55:48;;;;;;;;;;;;;;;17.54;81.28;101503.00;5047256;28;20399;-56
2022/09/06 05:58:13;;;;;;;;;;;;;;;17.62;81.21;101502.00;5057539;28;20391;-56
2022/09/06 06:00:39;;;;;;;;;;;;;;;17.69;80.97;101505.59;5049504;28;19912;-56
2022/09/06 06:03:04;;;;;;;;;;;;;;;17.80;82.14;101496.13;5049060;28;19917;-56
2022/09/06 06:05:29;;;;;;;;;;;;;;;17.88;81.78;101498.59;5048787;28;19919;-56
2022/09/06 06:07:56;;;;;;;;;;;;;;;17.94;82.18;101495.97;5054453;28;19912;-56
2022/09/06 06:10:22;;;;;;;;;;;;;;;18.03;82.64;101501.97;5047397;28;19917;-56
2022/09/06 06:12:47;;;;;;;;;;;;;;;18.11;82.95;101496.41;5050495;28;20447;-55
2022/09/06 06:15:12;;;;;;;;;;;;;;;18.15;82.84;101497.63;5045640;28;19978;-56
2022/09/06 06:17:38;;;;;;;;;;;;;;;18.23;82.52;101500.16;5048708;28;20406;-56
2022/09/06 06:20:03;;;;;;;;;;;;;;;18.33;83.18;101498.91;5048747;28;19913;-56
2022/09/06 06:22:28;;;;;;;;;;;;;;;18.42;82.59;101497.66;5048393;28;19912;-56
2022/09/06 06:24:53;;;;;;;;;;;;;;;18.47;82.23;101498.69;5047019;28;19913;-56
2022/09/06 06:27:19;;;;;;;;;;;;;;;18.53;82.04;101497.91;5048891;28;19919;-56
2022/09/06 06:29:44;;;;;;;;;;;;;;;18.62;82.13;101492.31;5049577;28;20391;-56
2022/09/06 06:32:09;;;;;;;;;;;;;;;18.68;81.49;101491.50;5045942;28;19924;-54
2022/09/06 06:34:34;;;;;;;;;;;;;;;18.76;82.06;101489.41;5052072;28;19955;-56
2022/09/06 06:36:59;;;;;;;;;;;;;;;18.84;81.81;101496.47;5044395;28;19978;-55
2022/09/06 06:39:25;;;;;;;;;;;;;;;18.88;81.24;101493.16;5047695;28;19917;-56
2022/09/06 06:41:50;;;;;;;;;;;;;;;18.94;81.24;101494.16;5049835;28;20457;-57
2022/09/06 06:44:15;;;;;;;;;;;;;;;18.98;81.01;101481.94;5049286;28;19952;-57
2022/09/06 06:46:40;;;;;;;;;;;;;;;19.03;80.86;101481.31;5047793;28;19920;-56
2022/09/06 06:49:05;;;;;;;;;;;;;;;19.08;80.59;101490.44;5046698;28;19971;-56
2022/09/06 06:51:31;;;;;;;;;;;;;;;19.14;80.40;101480.66;5048875;28;19917;-56
2022/09/06 06:53:57;;;;;;;;;;;;;;;19.17;79.90;101491.84;5048905;28;19927;-56
2022/09/06 06:56:24;;;;;;;;;;;;;;;19.20;79.81;101479.81;5048078;28;19921;-55
2022/09/06 06:58:51;;;;;;;;;;;;;;;19.18;79.78;101482.72;5051486;28;19921;-55
2022/09/06 07:01:16;;;;;;;;;;;;;;;19.17;79.24;101481.06;5047218;28;19969;-55
2022/09/06 07:03:41;;;;;;;;;;;;;;;19.16;78.96;101482.09;5046800;28;19921;-56
2022/09/06 07:06:07;;;;;;;;;;;;;;;19.12;78.52;101482.75;5049403;28;19917;-55
2022/09/06 07:08:33;;;;;;;;;;;;;;;19.09;78.37;101480.47;5044490;28;19927;-55
2022/09/06 07:10:58;;;;;;;;;;;;;;;19.05;77.77;101477.34;5048052;28;20451;-55
2022/09/06 07:13:23;;;;;;;;;;;;;;;19.05;77.80;101482.75;5047789;28;19962;-56
2022/09/06 07:15:49;;;;;;;;;;;;;;;19.07;77.76;101479.84;5048505;28;20007;-55
2022/09/06 07:18:14;;;;;;;;;;;;;;;19.10;78.31;101469.50;5047951;28;19921;-56
2022/09/06 07:20:39;;;;;;;;;;;;;;;19.15;78.00;101475.06;5048531;28;20050;-56
2022/09/06 07:23:04;;;;;;;;;;;;;;;19.22;78.87;101466.13;5046094;28;19981;-56
2022/09/06 07:25:30;;;;;;;;;;;;;;;19.26;78.79;101467.38;5050238;28;19951;-56
2022/09/06 07:28:07;;;;;;;;;;;;;;;19.30;78.48;101469.41;5049744;28;19929;-56
2022/09/06 07:30:35;;;;;;;;;;;;;;;19.35;77.99;101468.78;5048009;28;19916;-55
2022/09/06 07:33:00;;;;;;;;;;;;;;;19.38;77.63;101473.75;5046271;28;19921;-56
2022/09/06 07:35:26;;;;;;;;;;;;;;;19.40;77.18;101471.69;5049746;28;19923;-54
2022/09/06 07:37:52;;;;;;;;;;;;;;;19.41;77.61;101476.84;5047000;28;19913;-57
2022/09/06 07:40:17;;;;;;;;;;;;;;;19.47;78.02;101483.25;5055516;28;19925;-56
2022/09/06 07:42:42;;;;;;;;;;;;;;;19.53;77.59;101490.50;5045900;28;19940;-55
2022/09/06 07:45:08;;;;;;;;;;;;;;;19.58;77.68;101482.59;5046122;28;19921;-55
2022/09/06 07:47:33;;;;;;;;;;;;;;;19.64;77.40;101476.34;5047874;28;19924;-56
2022/09/06 07:49:58;;;;;;;;;;;;;;;19.70;77.67;101480.91;5046333;28;20299;-57
2022/09/06 07:52:27;;;;;;;;;;;;;;;19.78;77.53;101479.81;5046296;28;19913;-56
2022/09/06 07:54:52;;;;;;;;;;;;;;;19.86;76.96;101479.56;5045949;28;19919;-55
2022/09/06 07:57:17;;;;;;;;;;;;;;;19.91;76.57;101478.91;5046730;28;20011;-56
2022/09/06 07:59:42;;;;;;;;;;;;;;;19.99;76.96;101473.28;5047620;28;19913;-56
2022/09/06 08:02:08;;;;;;;;;;;;;;;20.08;76.91;101469.25;5050565;28;19924;-56
2022/09/06 08:04:33;;;;;;;;;;;;;;;20.14;76.20;101470.25;5048092;28;20003;-58
2022/09/06 08:07:00;;;;;;;;;;;;;;;20.22;76.21;101468.13;5047877;28;19920;-56
2022/09/06 08:09:25;;;;;;;;;;;;;;;20.30;75.79;101464.34;5048283;28;19956;-58
2022/09/06 08:11:51;;;;;;;;;;;;;;;20.36;75.78;101464.28;5045801;28;20721;-58
2022/09/06 08:14:16;;;;;;;;;;;;;;;20.45;75.74;101456.75;5050739;28;19921;-55
2022/09/06 08:16:41;;;;;;;;;;;;;;;20.52;75.18;101457.53;5047394;28;19921;-56
2022/09/06 08:19:11;;;;;;;;;;;;;;;20.59;74.55;101454.78;5048429;28;20340;-55
2022/09/06 08:21:36;;;;;;;;;;;;;;;20.67;74.47;101451.78;5044781;28;19940;-56
2022/09/06 08:24:03;;;;;;;;;;;;;;;20.73;74.38;101454.44;5048539;28;20364;-56
2022/09/06 08:26:29;;;;;;;;;;;;;;;20.83;74.22;101456.63;5046313;28;19931;-56
2022/09/06 08:28:57;;;;;;;;;;;;;;;20.89;73.40;101458.44;5049121;28;19923;-57
2022/09/06 08:31:22;;;;;;;;;;;;;;;20.96;73.24;101448.38;5046908;28;19970;-58
2022/09/06 08:33:47;;;;;;;;;;;;;;;21.02;72.88;101452.06;5051903;28;19913;-57
2022/09/06 08:36:13;;;;;;;;;;;;;;;21.04;72.59;101455.34;5049869;28;19913;-56
2022/09/06 08:38:38;;;;;;;;;;;;;;;21.08;72.34;101456.56;5052017;28;19920;-56
2022/09/06 08:41:24;;;;;;;;;;;;;;;21.11;72.05;101463.41;5051081;28;20423;-56
2022/09/06 08:44:01;;;;;;;;;;;;;;;21.12;71.08;101468.59;5050464;28;20299;-56
2022/09/06 08:46:36;;;;;;;;;;;;;;;21.17;71.15;101463.31;5052740;28;20149;-56
2022/09/06 08:49:02;;;;;;;;;;;;;;;21.27;71.61;101452.00;5049515;28;19966;-54
2022/09/06 08:51:27;;;;;;;;;;;;;;;21.37;71.24;101457.69;5047782;28;19995;-56
2022/09/06 08:53:58;;;;;;;;;;;;;;;21.45;70.67;101456.59;5053776;28;19923;-56
2022/09/06 08:56:27;;;;;;;;;;;;;;;21.54;69.91;101466.03;5039902;28;19917;-56
2022/09/06 08:59:03;;;;;;;;;;;;;;;21.57;69.20;101460.16;5046613;28;19928;-56
2022/09/06 09:01:46;;;;;;;;;;;;;;;21.62;68.20;101452.19;5048204;28;20391;-56
2022/09/06 09:04:13;;;;;;;;;;;;;;;21.71;68.56;101455.41;5044447;28;19978;-55
2022/09/06 09:06:38;;;;;;;;;;;;;;;21.81;67.84;101464.59;5049109;28;19940;-57
2022/09/06 09:09:04;;;;;;;;;;;;;;;21.92;66.97;101447.59;5050105;28;20391;-56
2022/09/06 09:11:32;;;;;;;;;;;;;;;22.01;66.86;101458.09;5046404;28;19974;-56
2022/09/06 09:14:03;;;;;;;;;;;;;;;22.12;65.72;101446.50;5041511;28;19925;-56
2022/09/06 09:16:28;;;;;;;;;;;;;;;22.30;66.02;101451.84;5047591;28;20553;-55
2022/09/06 09:18:55;;;;;;;;;;;;;;;22.43;65.19;101448.06;5049214;28;20001;-57
2022/09/06 09:21:21;;;;;;;;;;;;;;;22.50;65.07;101444.19;5049252;28;19943;-54
2022/09/06 09:23:54;;;;;;;;;;;;;;;22.59;63.90;101449.28;5049523;28;19924;-55
2022/09/06 09:26:21;;;;;;;;;;;;;;;22.62;63.71;101449.63;5054289;28;20031;-56
2022/09/06 09:29:02;;;;;;;;;;;;;;;22.62;63.29;101446.09;5047553;28;20269;-57
2022/09/06 09:31:35;;;;;;;;;;;;;;;22.66;63.70;101441.84;5050423;28;19982;-56
2022/09/06 09:34:03;;;;;;;;;;;;;;;22.76;63.70;101452.91;5051722;28;20375;-57
2022/09/06 09:36:28;;;;;;;;;;;;;;;22.93;63.64;101458.47;5054903;28;20023;-56
2022/09/06 09:38:55;;;;;;;;;;;;;;;23.03;63.26;101459.50;5053985;28;20384;-56
2022/09/06 09:41:27;;;;;;;;;;;;;;;23.03;62.34;101464.09;5048273;28;20146;-56
2022/09/06 09:44:03;;;;;;;;;;;;;;;23.08;62.60;101465.03;5049280;28;19920;-57
2022/09/06 09:46:31;;;;;;;;;;;;;;;23.26;63.04;101455.09;5050388;28;19923;-57
2022/09/06 09:49:07;;;;;;;;;;;;;;;23.40;62.29;101449.16;5049210;28;20054;-55
2022/09/06 09:51:37;;;;;;;;;;;;;;;23.52;61.79;101457.25;5045686;28;20411;-56
2022/09/06 09:54:04;;;;;;;;;;;;;;;23.56;61.20;101453.03;5050101;28;20277;-55
2022/09/06 09:56:32;;;;;;;;;;;;;;;23.62;60.73;101457.47;5049837;28;19921;-57
2022/09/06 09:58:58;;;;;;;;;;;;;;;23.71;60.42;101450.63;5051167;28;19927;-54
2022/09/06 10:01:28;;;;;;;;;;;;;;;23.70;60.23;101453.56;5049739;28;19913;-57
2022/09/06 10:03:59;;;;;;;;;;;;;;;23.78;60.22;101453.19;5050141;28;19986;-57
2022/09/06 10:06:25;;;;;;;;;;;;;;;23.95;60.44;101447.78;5049505;28;20681;-56
2022/09/06 10:08:51;;;;;;;;;;;;;;;24.01;59.38;101446.81;5052482;28;19916;-57
2022/09/06 10:11:35;;;;;;;;;;;;;;;24.07;59.12;101443.13;5045291;28;20303;-56
2022/09/06 10:14:11;;;;;;;;;;;;;;;24.14;59.07;101451.09;5048038;28;19999;-57
2022/09/06 10:16:42;;;;;;;;;;;;;;;24.15;59.26;101450.84;5048381;28;19913;-56
2022/09/06 10:19:20;;;;;;;;;;;;;;;24.32;59.17;101457.16;5049103;28;19974;-57
2022/09/06 10:21:45;;;;;;;;;;;;;;;24.44;58.89;101457.06;5050241;28;19913;-55
2022/09/06 10:24:18;;;;;;;;;;;;;;;24.43;58.39;101463.56;5043325;28;19919;-56
2022/09/06 10:26:50;;;;;;;;;;;;;;;24.48;58.26;101477.19;5048630;28;19964;-56
2022/09/06 10:29:25;;;;;;;;;;;;;;;24.54;57.97;101464.53;5044829;28;19975;-54
2022/09/06 10:31:57;;;;;;;;;;;;;;;24.66;57.86;101478.84;5046936;28;19924;-55
2022/09/06 10:34:41;;;;;;;;;;;;;;;24.73;57.70;101474.06;5049040;28;19920;-56
2022/09/06 10:37:13;;;;;;;;;;;;;;;24.66;57.41;101470.69;5042315;28;19960;-56
2022/09/06 10:39:41;;;;;;;;;;;;;;;24.71;57.52;101459.91;5048734;28;19917;-56
2022/09/06 10:42:28;;;;;;;;;;;;;;;24.88;57.81;101466.16;5044176;28;19970;-57
2022/09/06 10:45:01;;;;;;;;;;;;;;;24.95;56.98;101463.25;5045562;28;19995;-56
2022/09/06 10:47:32;;;;;;;;;;;;;;;25.00;57.28;101458.72;5045358;28;19912;-56
2022/09/06 10:49:59;;;;;;;;;;;;;;;24.95;56.85;101455.91;5049178;28;19924;-57
2022/09/06 10:52:32;;;;;;;;;;;;;;;24.95;57.20;101466.78;5048429;28;19951;-56
2022/09/06 10:55:03;;;;;;;;;;;;;;;25.02;57.06;101455.75;5044397;28;20334;-56
2022/09/06 10:57:33;;;;;;;;;;;;;;;25.11;57.27;101459.66;5046959;28;20431;-57
2022/09/06 11:00:02;;;;;;;;;;;;;;;25.18;56.66;101459.50;5048248;28;19956;-57
2022/09/06 11:02:46;;;;;;;;;;;;;;;25.13;55.75;101451.25;5045822;28;19979;-56
2022/09/06 11:05:32;;;;;;;;;;;;;;;24.98;55.89;101452.72;5040467;28;19917;-57
2022/09/06 11:08:06;;;;;;;;;;;;;;;25.02;56.51;101462.00;5044262;28;19959;-57
2022/09/06 11:10:33;;;;;;;;;;;;;;;25.08;55.86;101457.44;5043301;28;19921;-58
2022/09/06 11:13:04;;;;;;;;;;;;;;;25.13;56.17;101464.84;5048665;28;19913;-55
2022/09/06 11:15:39;;;;;;;;;;;;;;;25.12;55.82;101463.22;5047335;28;19962;-55
2022/09/06 11:18:08;;;;;;;;;;;;;;;25.19;56.63;101467.41;5047192;28;19913;-57
2022/09/06 11:20:33;;;;;;;;;;;;;;;25.31;55.68;101459.94;5040713;28;19931;-56
2022/09/06 11:23:22;;;;;;;;;;;;;;;25.36;55.03;101458.34;5045446;28;20264;-57
2022/09/06 11:25:57;;;;;;;;;;;;;;;25.38;54.40;101476.03;5052534;28;20345;-56
2022/09/06 11:28:31;;;;;;;;;;;;;;;25.36;54.89;101483.63;5048253;28;19964;-57
2022/09/06 11:30:57;;;;;;;;;;;;;;;25.48;54.29;101480.81;5045682;28;19921;-57
2022/09/06 11:33:24;;;;;;;;;;;;;;;25.51;54.81;101486.56;5045858;28;19924;-57
2022/09/06 11:35:49;;;;;;;;;;;;;;;25.58;54.27;101487.19;5046302;28;19913;-57
2022/09/06 11:38:14;;;;;;;;;;;;;;;25.55;54.30;101484.16;5048889;28;19923;-57
2022/09/06 11:40:41;;;;;;;;;;;;;;;25.61;55.11;101486.66;5047637;28;19963;-57
2022/09/06 11:43:08;;;;;;;;;;;;;;;25.64;54.48;101480.72;5046299;28;19923;-58
2022/09/06 11:45:39;;;;;;;;;;;;;;;25.70;54.70;101473.44;5048003;28;20275;-57
2022/09/06 11:48:23;;;;;;;;;;;;;;;25.81;53.48;101479.84;5049559;28;20263;-56
2022/09/06 11:50:57;;;;;;;;;;;;;;;25.78;53.23;101477.63;5047697;28;19924;-57
2022/09/06 11:53:23;;;;;;;;;;;;;;;25.78;52.43;101469.47;5042662;28;19960;-57
2022/09/06 11:55:50;;;;;;;;;;;;;;;25.79;52.29;101477.38;5047350;28;19924;-57
2022/09/06 11:58:15;;;;;;;;;;;;;;;25.80;51.97;101473.56;5044259;28;19974;-57
2022/09/06 12:00:41;;;;;;;;;;;;;;;25.80;51.42;101465.41;5051084;28;19921;-57
2022/09/06 12:03:07;;;;;;;;;;;;;;;25.87;51.73;101460.56;5042357;28;19913;-57
2022/09/06 12:05:32;;;;;;;;;;;;;;;25.94;50.94;101474.78;5048093;28;19974;-57
2022/09/06 12:08:09;;;;;;;;;;;;;;;25.97;51.58;101459.03;5051472;28;19925;-57
2022/09/06 12:10:37;;;;;;;;;;;;;;;25.97;52.10;101456.31;5050794;28;19928;-57
2022/09/06 12:13:22;;;;;;;;;;;;;;;26.08;52.23;101458.88;5052024;28;20481;-57
2022/09/06 12:15:52;;;;;;;;;;;;;;;26.17;52.09;101453.78;5050150;28;19924;-56
2022/09/06 12:18:36;;;;;;;;;;;;;;;26.21;51.52;101454.88;5052393;28;19917;-57
2022/09/06 12:21:02;;;;;;;;;;;;;;;26.23;48.36;101453.53;5048341;28;19918;-58
2022/09/06 12:23:33;;;;;;;;;;;;;;;26.27;48.42;101453.03;5049054;28;19920;-57
2022/09/06 12:25:58;;;;;;;;;;;;;;;26.38;49.32;101449.34;5051500;28;19970;-57
2022/09/06 12:28:39;;;;;;;;;;;;;;;26.42;49.46;101453.19;5048480;28;19924;-57
2022/09/06 12:31:23;;;;;;;;;;;;;;;26.46;49.05;101443.41;5050995;28;19920;-57
2022/09/06 12:33:48;;;;;;;;;;;;;;;26.50;47.69;101450.78;5048019;28;19913;-57
2022/09/06 12:36:17;;;;;;;;;;;;;;;26.61;48.67;101448.97;5051699;28;19919;-57
2022/09/06 12:38:56;;;;;;;;;;;;;;;26.73;48.54;101449.59;5053303;28;19943;-57
2022/09/06 12:41:21;;;;;;;;;;;;;;;26.81;48.08;101454.53;5046657;28;19928;-57